Postoak, Texas
Current Conditions -  °F | °C
As of 11:35 AM on Tuesday 21 Oct 2014 (Local Time) from K0F2 Reporting Station
Clear Clear  
Wind Chill: 76°   Ceiling: Unl
Heat Index: 78°   Visibility: 10mi
Dew Point: 60°   Wind: 3mph
Humidity: 57%   Direction: 190°S
Pressure: 30.12"   Gusts: NA
Location:  33.5529°N, 97.8448°W
Report Text: K0F2 211635Z AUTO 19003KT 10SM CLR 25/15 A3012 RMK AO2 T02450154
Loading
Personal Weather Stations






























Interactive Weather Map New forecast layout! Learn more

10-Day Weather Forecast

Advertisements
Track Severe Weather on mobile